Time;durP1;ratioP1;P1;durP2;ratioP2;P2;SDS_P1;SDS_P2;PMS_P1;PMS_P2;Temp;Humidity;BMP_temperature;BMP_pressure;BME280_temperature;BME280_humidity;BME280_pressure;Samples;Min_cycle;Max_cycle;Signal;HPM_P1;HPM_P2
2023/12/28 05:47:13;;;;;;;8.23;2.33;;;;;;;10.22;100.00;100573.09;5354842;24;20161;-78
2023/12/28 05:49:38;;;;;;;10.73;2.67;;;;;;;10.05;100.00;100571.69;4781248;29;20043;-76
2023/12/28 05:52:04;;;;;;;4.70;2.13;;;;;;;10.14;100.00;100605.75;4771801;29;20453;-76
2023/12/28 05:54:29;;;;;;;9.05;2.33;;;;;;;10.06;100.00;100562.94;4773104;30;20495;-76
2023/12/28 05:56:54;;;;;;;16.23;3.10;;;;;;;10.06;100.00;100567.75;4781099;29;20040;-76
2023/12/28 05:59:21;;;;;;;10.32;2.50;;;;;;;10.15;100.00;100559.84;4774756;30;20106;-76
2023/12/28 06:01:47;;;;;;;16.08;2.08;;;;;;;10.10;100.00;100557.41;4769851;29;21484;-76
2023/12/28 06:04:12;;;;;;;7.15;2.38;;;;;;;10.10;100.00;100565.78;4785031;29;20538;-76
2023/12/28 06:06:38;;;;;;;12.35;3.00;;;;;;;10.19;100.00;100566.28;4778468;29;20034;-76
2023/12/28 06:09:03;;;;;;;12.45;2.75;;;;;;;10.13;100.00;100559.41;4780739;29;20085;-76
2023/12/28 06:11:30;;;;;;;9.98;2.38;;;;;;;10.08;100.00;100568.16;4787884;29;20454;-76
2023/12/28 06:13:55;;;;;;;11.38;2.28;;;;;;;10.19;100.00;100552.28;4781517;29;20031;-76
2023/12/28 06:16:20;;;;;;;10.27;3.42;;;;;;;10.21;100.00;100583.47;4776298;30;20035;-76
2023/12/28 06:18:46;;;;;;;9.73;2.53;;;;;;;10.15;100.00;100582.22;4780526;29;20096;-76
2023/12/28 06:21:11;;;;;;;11.35;3.38;;;;;;;10.28;100.00;100563.16;4779902;29;20050;-76
2023/12/28 06:23:37;;;;;;;7.15;2.90;;;;;;;10.25;100.00;100587.13;4770682;29;20442;-76
2023/12/28 06:26:06;;;;;;;10.98;2.38;;;;;;;10.25;100.00;100564.75;4779265;29;20062;-76
2023/12/28 06:28:31;;;;;;;7.95;2.33;;;;;;;10.27;100.00;100578.34;4775593;30;20490;-76
2023/12/28 06:31:00;;;;;;;13.20;2.55;;;;;;;10.25;100.00;100564.75;4771806;30;20039;-76
2023/12/28 06:33:26;;;;;;;7.20;2.58;;;;;;;10.18;100.00;100559.06;4774993;30;20042;-76
2023/12/28 06:35:53;;;;;;;9.98;2.83;;;;;;;10.27;100.00;100567.16;4772076;30;20039;-76
2023/12/28 06:38:18;;;;;;;5.40;1.95;;;;;;;10.29;100.00;100553.59;4774211;30;20073;-76
2023/12/28 06:40:43;;;;;;;22.15;3.00;;;;;;;10.20;100.00;100555.88;4772897;30;20503;-76
2023/12/28 06:43:09;;;;;;;10.07;1.92;;;;;;;10.08;100.00;100573.75;4775140;30;20117;-76
2023/12/28 06:45:34;;;;;;;9.10;2.17;;;;;;;10.07;100.00;100574.94;4768767;30;20096;-76
2023/12/28 06:47:59;;;;;;;15.60;3.65;;;;;;;10.27;100.00;100579.16;4760100;30;20047;-76
2023/12/28 06:50:24;;;;;;;5.40;2.67;;;;;;;10.25;100.00;100595.53;4754053;30;20067;-76
2023/12/28 06:52:50;;;;;;;8.60;2.28;;;;;;;10.11;100.00;100581.38;4760320;30;20411;-77
2023/12/28 06:55:15;;;;;;;8.55;2.88;;;;;;;10.23;100.00;100583.09;4757458;30;20036;-76
2023/12/28 06:57:40;;;;;;;7.55;2.47;;;;;;;10.25;100.00;100606.72;4756952;30;20471;-76
2023/12/28 07:00:06;;;;;;;7.43;2.28;;;;;;;10.19;100.00;100594.25;4757651;30;20039;-76
2023/12/28 07:02:32;;;;;;;12.35;2.60;;;;;;;10.32;100.00;100601.22;4762680;30;20124;-76
2023/12/28 07:04:57;;;;;;;8.45;2.13;;;;;;;10.20;100.00;100595.84;4752856;30;20044;-76
2023/12/28 07:07:22;;;;;;;15.65;2.95;;;;;;;10.31;100.00;100602.41;4759568;30;20060;-75
2023/12/28 07:09:48;;;;;;;11.55;2.78;;;;;;;10.41;100.00;100605.69;4753972;30;20085;-75
2023/12/28 07:12:13;;;;;;;14.60;2.80;;;;;;;10.35;100.00;100622.84;4756199;30;20043;-75
2023/12/28 07:14:38;;;;;;;10.20;2.22;;;;;;;10.29;100.00;100627.16;4753054;30;20127;-75
2023/12/28 07:17:04;;;;;;;12.07;2.38;;;;;;;10.28;100.00;100603.13;4756002;30;20038;-76
2023/12/28 07:19:29;;;;;;;12.88;2.53;;;;;;;10.44;100.00;100621.72;4761850;30;20410;-75
2023/12/28 07:21:54;;;;;;;12.63;2.90;;;;;;;10.44;100.00;100613.34;4761617;30;20642;-75
2023/12/28 07:24:20;;;;;;;18.50;4.03;;;;;;;10.44;100.00;100627.34;4761108;30;20031;-76
2023/12/28 07:26:45;;;;;;;9.45;3.22;;;;;;;10.20;100.00;100632.22;4759429;30;20062;-75
2023/12/28 07:29:10;;;;;;;23.65;3.90;;;;;;;10.34;100.00;100657.59;4762278;30;20457;-75
2023/12/28 07:31:36;;;;;;;12.07;2.80;;;;;;;10.27;100.00;100634.31;4760823;30;20066;-76
2023/12/28 07:34:02;;;;;;;15.88;4.10;;;;;;;10.24;100.00;100635.84;4764337;30;20043;-75
2023/12/28 07:36:27;;;;;;;15.10;3.85;;;;;;;10.35;100.00;100636.84;4758474;30;20051;-76
2023/12/28 07:38:52;;;;;;;10.98;3.35;;;;;;;10.40;100.00;100637.69;4764957;30;20024;-76
2023/12/28 07:41:18;;;;;;;14.15;2.25;;;;;;;10.26;100.00;100633.47;4766033;30;20515;-75
2023/12/28 07:43:43;;;;;;;12.68;3.35;;;;;;;10.30;100.00;100631.56;4756741;30;20066;-75
2023/12/28 07:46:10;;;;;;;16.77;2.97;;;;;;;10.33;100.00;100650.41;4755912;30;20151;-75
2023/12/28 07:48:35;;;;;;;13.40;2.28;;;;;;;10.29;100.00;100652.34;4762920;30;20245;-75
2023/12/28 07:51:05;;;;;;;13.48;2.55;;;;;;;10.23;100.00;100664.22;4762030;30;20055;-75
2023/12/28 07:53:30;;;;;;;8.75;2.35;;;;;;;10.25;100.00;100673.03;4767885;30;20059;-75
2023/12/28 07:55:56;;;;;;;11.13;2.35;;;;;;;10.27;100.00;100674.25;4770009;29;20120;-75
2023/12/28 07:58:21;;;;;;;12.75;3.15;;;;;;;10.25;100.00;100671.03;4769793;30;20144;-78
2023/12/28 08:00:47;;;;;;;17.30;3.22;;;;;;;10.28;100.00;100681.47;4762499;30;20557;-75
2023/12/28 08:03:15;;;;;;;11.25;2.47;;;;;;;10.21;100.00;100692.56;4756418;30;20067;-75
2023/12/28 08:05:40;;;;;;;16.35;2.80;;;;;;;10.16;100.00;100679.72;4777793;29;20031;-75
2023/12/28 08:08:06;;;;;;;14.60;2.97;;;;;;;10.29;100.00;100682.28;4763059;29;20048;-75
2023/12/28 08:10:31;;;;;;;20.85;3.45;;;;;;;10.31;100.00;100686.34;4777890;29;20542;-75
2023/12/28 08:12:57;;;;;;;11.40;3.40;;;;;;;10.20;100.00;100678.97;4767969;30;20229;-75
2023/12/28 08:15:22;;;;;;;16.02;3.20;;;;;;;10.19;100.00;100678.16;4775267;30;20122;-75
2023/12/28 08:17:47;;;;;;;19.05;3.92;;;;;;;10.29;100.00;100683.13;4751333;30;20048;-75
2023/12/28 08:20:13;;;;;;;11.23;2.90;;;;;;;10.27;100.00;100691.06;4752730;30;20487;-76
2023/12/28 08:22:38;;;;;;;13.65;2.30;;;;;;;10.34;100.00;100690.34;4757285;30;20059;-76
2023/12/28 08:25:04;;;;;;;10.07;2.35;;;;;;;10.28;100.00;100686.25;4761916;30;20039;-75
2023/12/28 08:27:29;;;;;;;13.75;4.13;;;;;;;10.26;100.00;100678.22;4756060;30;20032;-76
2023/12/28 08:29:55;;;;;;;19.05;3.50;;;;;;;10.32;100.00;100687.94;4752596;30;20031;-77
2023/12/28 08:32:20;;;;;;;14.80;3.88;;;;;;;10.38;100.00;100689.22;4751111;30;20239;-76
2023/12/28 08:34:47;;;;;;;13.48;2.83;;;;;;;10.26;100.00;100674.63;4762030;30;20413;-75
2023/12/28 08:37:13;;;;;;;17.52;2.80;;;;;;;10.28;100.00;100675.88;4759995;30;20032;-75
2023/12/28 08:39:39;;;;;;;15.57;2.85;;;;;;;10.27;100.00;100679.88;4774008;30;20092;-75
2023/12/28 08:42:08;;;;;;;17.88;3.83;;;;;;;10.29;100.00;100691.50;4764750;29;20547;-76
2023/12/28 08:44:33;;;;;;;13.48;2.60;;;;;;;10.25;100.00;100692.63;4760060;30;20151;-75
2023/12/28 08:46:59;;;;;;;12.40;4.05;;;;;;;10.24;100.00;100680.59;4759122;29;20116;-75
2023/12/28 08:49:25;;;;;;;13.95;2.67;;;;;;;10.25;100.00;100693.44;4770663;30;20517;-75
2023/12/28 08:51:50;;;;;;;16.17;4.15;;;;;;;10.27;100.00;100685.47;4763976;29;20062;-76
2023/12/28 08:54:16;;;;;;;9.43;2.72;;;;;;;10.42;100.00;100697.66;4760119;30;20123;-75
2023/12/28 08:56:41;;;;;;;16.58;2.90;;;;;;;10.37;100.00;100673.63;4765487;30;20112;-76
2023/12/28 08:59:06;;;;;;;9.50;2.38;;;;;;;10.34;100.00;100676.38;4769246;30;20024;-76
2023/12/28 09:01:32;;;;;;;14.07;3.42;;;;;;;10.32;100.00;100687.94;4774432;30;20036;-76
2023/12/28 09:03:58;;;;;;;12.73;3.78;;;;;;;10.37;100.00;100707.19;4759959;30;20506;-75
2023/12/28 09:06:23;;;;;;;22.88;2.65;;;;;;;10.34;100.00;100696.75;4763554;30;20436;-75
2023/12/28 09:08:51;;;;;;;13.32;2.85;;;;;;;10.32;100.00;100707.53;4767006;30;20078;-76
2023/12/28 09:11:16;;;;;;;17.75;3.20;;;;;;;10.40;100.00;100693.63;4757337;30;20564;-75
2023/12/28 09:13:42;;;;;;;8.32;3.20;;;;;;;10.32;100.00;100687.94;4761123;30;20043;-75
2023/12/28 09:16:10;;;;;;;12.68;4.22;;;;;;;10.32;100.00;100704.72;4766951;30;20028;-75
2023/12/28 09:18:37;;;;;;;21.35;4.05;;;;;;;10.25;100.00;100699.03;4759564;30;20495;-75
2023/12/28 09:21:03;;;;;;;15.25;3.65;;;;;;;10.35;100.00;100715.16;4761797;30;20040;-76
2023/12/28 09:23:29;;;;;;;14.32;2.65;;;;;;;10.36;100.00;100711.16;4764316;30;20060;-76
2023/12/28 09:25:54;;;;;;;7.85;2.67;;;;;;;10.40;100.00;100699.22;4757099;30;20063;-75
2023/12/28 09:28:19;;;;;;;19.42;3.35;;;;;;;10.50;100.00;100715.34;4761008;30;20035;-75
2023/12/28 09:30:45;;;;;;;21.02;4.05;;;;;;;10.47;100.00;100716.09;4756141;30;20072;-76
2023/12/28 09:33:10;;;;;;;10.10;3.67;;;;;;;10.55;100.00;100707.41;4771209;30;20059;-75
2023/12/28 09:35:36;;;;;;;13.88;2.97;;;;;;;10.58;100.00;100733.81;4770612;30;20043;-75
2023/12/28 09:38:01;;;;;;;13.55;3.53;;;;;;;10.56;100.00;100737.00;4769950;30;20081;-76
2023/12/28 09:40:26;;;;;;;10.30;2.88;;;;;;;10.54;100.00;100746.97;4765250;29;20028;-75
2023/12/28 09:43:04;;;;;;;13.60;3.45;;;;;;;10.46;100.00;100720.09;4766329;30;20039;-76
2023/12/28 09:45:29;;;;;;;13.88;3.88;;;;;;;10.54;100.00;100749.75;4763721;29;20031;-75
2023/12/28 09:47:55;;;;;;;12.25;3.25;;;;;;;10.47;100.00;100739.28;4763032;30;20101;-75
2023/12/28 09:50:21;;;;;;;12.85;2.65;;;;;;;10.49;100.00;100747.31;4777790;29;20028;-76
2023/12/28 09:52:47;;;;;;;15.85;3.13;;;;;;;10.47;100.00;100756.06;4765129;29;20040;-77
2023/12/28 09:55:12;;;;;;;12.93;3.85;;;;;;;10.41;100.00;100729.59;4754261;30;20377;-75
2023/12/28 09:57:38;;;;;;;10.43;2.33;;;;;;;10.58;100.00;100761.81;4760148;30;20102;-76
2023/12/28 10:00:06;;;;;;;12.98;3.60;;;;;;;10.58;100.00;100756.19;4762697;30;20035;-75
2023/12/28 10:02:33;;;;;;;15.65;2.80;;;;;;;10.40;100.00;100741.19;4767966;30;20518;-76
2023/12/28 10:04:58;;;;;;;14.50;3.17;;;;;;;10.41;100.00;100756.78;4762947;30;20040;-76
2023/12/28 10:07:24;;;;;;;12.45;2.90;;;;;;;10.50;100.00;100752.53;4775685;29;20048;-76
2023/12/28 10:09:49;;;;;;;11.70;2.42;;;;;;;10.55;100.00;100751.38;4765112;29;20032;-78
2023/12/28 10:12:14;;;;;;;11.63;2.70;;;;;;;10.71;100.00;100763.19;4770858;29;20605;-76
2023/12/28 10:14:40;;;;;;;15.25;2.70;;;;;;;10.65;100.00;100767.50;4768378;29;20502;-76
2023/12/28 10:17:06;;;;;;;12.35;3.13;;;;;;;10.67;100.00;100741.94;4755194;29;20127;-76
2023/12/28 10:19:31;;;;;;;14.95;3.05;;;;;;;10.59;100.00;100746.63;4761953;30;20376;-75
2023/12/28 10:21:57;;;;;;;16.85;2.70;;;;;;;10.55;100.00;100751.38;4766743;30;20042;-76
2023/12/28 10:24:22;;;;;;;12.38;3.58;;;;;;;10.57;100.00;100749.00;4763063;30;20047;-76
2023/12/28 10:26:49;;;;;;;16.65;4.07;;;;;;;10.59;100.00;100749.44;4764847;30;20035;-76
2023/12/28 10:29:14;;;;;;;15.30;3.42;;;;;;;10.72;100.00;100750.78;4755879;30;20118;-75
2023/12/28 10:31:43;;;;;;;19.17;3.45;;;;;;;10.61;100.00;100749.84;4761261;30;20665;-75
2023/12/28 10:34:08;;;;;;;15.60;3.78;;;;;;;10.67;100.00;100765.13;4758164;30;20062;-76
2023/12/28 10:36:36;;;;;;;11.70;2.40;;;;;;;10.61;100.00;100755.47;4760167;30;20038;-75
2023/12/28 10:39:04;;;;;;;23.13;3.42;;;;;;;10.70;100.00;100764.34;4756469;30;20475;-75
2023/12/28 10:41:32;;;;;;;12.93;3.75;;;;;;;10.63;100.00;100753.09;4757541;30;20044;-76
2023/12/28 10:44:04;;;;;;;15.57;3.10;;;;;;;10.71;100.00;100765.16;4766048;30;20031;-76
2023/12/28 10:46:35;;;;;;;;;;;;;;;10.64;100.00;100757.47;4775976;29;20043;-76
2023/12/28 10:49:11;;;;;;;14.68;3.63;;;;;;;10.69;100.00;100747.94;4771701;30;19976;-76
2023/12/28 10:51:40;;;;;;;13.15;2.72;;;;;;;10.76;100.00;100756.44;4769045;30;20036;-75
2023/12/28 10:54:09;;;;;;;13.40;2.65;;;;;;;10.78;100.00;100760.44;4764006;30;20529;-76
2023/12/28 10:56:44;;;;;;;10.57;2.45;;;;;;;10.69;100.00;100768.34;4770074;30;20093;-75
2023/12/28 10:59:15;;;;;;;11.23;2.60;;;;;;;10.68;100.00;100777.13;4779547;29;20031;-76
2023/12/28 11:01:42;;;;;;;9.18;2.85;;;;;;;10.68;100.00;100769.53;4763197;30;20645;-76
2023/12/28 11:04:17;;;;;;;19.58;3.53;;;;;;;10.71;100.00;100756.75;4759963;30;20042;-75
2023/12/28 11:06:43;;;;;;;13.18;2.72;;;;;;;10.73;100.00;100773.97;4756271;30;20596;-76
2023/12/28 11:09:10;;;;;;;16.15;2.72;;;;;;;10.70;100.00;100772.75;4754937;30;20047;-75
2023/12/28 11:11:36;;;;;;;15.13;2.88;;;;;;;10.72;100.00;100767.56;4749970;30;20040;-75
2023/12/28 11:14:03;;;;;;;14.50;2.92;;;;;;;10.71;100.00;100765.16;4764488;30;20050;-75
2023/12/28 11:16:29;;;;;;;12.15;3.45;;;;;;;10.69;100.00;100765.56;4758549;30;20043;-76
2023/12/28 11:18:55;;;;;;;20.40;3.38;;;;;;;10.66;100.00;100763.50;4769390;30;20395;-76
2023/12/28 11:21:22;;;;;;;14.68;3.30;;;;;;;10.68;100.00;100749.13;4757275;30;20065;-76
2023/12/28 11:23:48;;;;;;;16.50;3.70;;;;;;;10.64;100.00;100762.28;4765093;29;20391;-75
2023/12/28 11:26:21;;;;;;;12.07;3.03;;;;;;;10.64;100.00;100749.09;4766451;30;20044;-76
2023/12/28 11:28:47;;;;;;;11.70;2.63;;;;;;;10.69;100.00;100740.38;4762882;30;20498;-76
2023/12/28 11:31:17;;;;;;;15.07;3.03;;;;;;;10.67;100.00;100742.75;4764017;30;20047;-78
2023/12/28 11:33:54;;;;;;;11.18;3.45;;;;;;;10.69;100.00;100759.97;4760410;29;20130;-76
2023/12/28 11:36:35;;;;;;;11.02;2.45;;;;;;;10.72;100.00;100750.78;4765458;30;20528;-75
2023/12/28 11:39:03;;;;;;;13.13;2.75;;;;;;;10.75;100.00;100754.81;4757471;29;20036;-75
2023/12/28 11:41:31;;;;;;;15.80;2.72;;;;;;;10.72;100.00;100742.38;4773387;30;20030;-75
2023/12/28 11:43:57;;;;;;;19.38;2.88;;;;;;;10.76;100.00;100734.84;4752111;29;20042;-75
2023/12/28 11:46:22;;;;;;;17.80;4.32;;;;;;;10.75;100.00;100741.63;4774537;29;20039;-75
2023/12/28 11:48:48;;;;;;;24.98;3.50;;;;;;;10.73;100.00;100735.59;4754119;30;20075;-75
2023/12/28 11:51:14;;;;;;;12.55;2.97;;;;;;;10.75;100.00;100744.44;4769370;30;20092;-75
2023/12/28 11:53:41;;;;;;;13.15;3.30;;;;;;;10.84;100.00;100746.13;4749290;29;20097;-75
2023/12/28 11:56:09;;;;;;;21.42;4.50;;;;;;;10.82;100.00;100754.09;4756914;30;20039;-75
2023/12/28 11:58:35;;;;;;;23.42;3.35;;;;;;;10.72;100.00;100739.59;4754522;30;20034;-76
2023/12/28 12:01:02;;;;;;;11.70;3.35;;;;;;;10.81;100.00;100747.69;4758413;30;20445;-75
2023/12/28 12:03:27;;;;;;;19.63;4.60;;;;;;;10.81;100.00;100736.47;4755614;30;20055;-76
2023/12/28 12:05:54;;;;;;;21.33;3.70;;;;;;;10.84;100.00;100752.53;4757386;30;20148;-76
2023/12/28 12:08:19;;;;;;;11.23;2.60;;;;;;;10.87;100.00;100748.94;4763289;30;20062;-76
2023/12/28 12:10:44;;;;;;;13.02;3.20;;;;;;;10.85;100.00;100736.53;4779611;30;20062;-76
2023/12/28 12:13:11;;;;;;;17.83;4.03;;;;;;;10.82;100.00;100740.09;4759508;30;20039;-76
2023/12/28 12:15:36;;;;;;;11.00;2.75;;;;;;;10.80;100.00;100740.47;4762903;30;20457;-75
2023/12/28 12:18:02;;;;;;;17.88;3.40;;;;;;;10.85;100.00;100739.31;4770171;30;20503;-76
2023/12/28 12:20:29;;;;;;;13.65;2.80;;;;;;;10.83;100.00;100744.50;4759605;30;20479;-76
2023/12/28 12:23:00;;;;;;;14.02;3.33;;;;;;;10.90;100.00;100728.59;4754233;30;20589;-75
2023/12/28 12:25:25;;;;;;;19.80;3.83;;;;;;;10.93;100.00;100732.63;4753606;30;20036;-75
2023/12/28 12:27:51;;;;;;;17.77;4.32;;;;;;;10.92;100.00;100736.59;4754646;30;20088;-75
2023/12/28 12:30:16;;;;;;;14.00;3.58;;;;;;;10.80;100.00;100728.47;4758841;30;20609;-75
2023/12/28 12:32:42;;;;;;;21.08;4.50;;;;;;;10.80;100.00;100718.09;4756841;30;20054;-76
2023/12/28 12:35:11;;;;;;;15.52;2.83;;;;;;;10.92;100.00;100720.63;4767619;30;20039;-76
2023/12/28 12:37:36;;;;;;;14.70;3.47;;;;;;;10.87;100.00;100720.94;4767767;30;20414;-76
2023/12/28 12:40:03;;;;;;;18.73;3.60;;;;;;;10.81;100.00;100714.06;4770734;29;20034;-75
2023/12/28 12:42:29;;;;;;;11.20;3.03;;;;;;;10.90;100.00;100738.97;4771675;30;20042;-76
2023/12/28 12:44:54;;;;;;;17.60;2.97;;;;;;;10.90;100.00;100737.00;4763277;29;20040;-75
2023/12/28 12:47:20;;;;;;;15.65;3.58;;;;;;;10.82;100.00;100715.72;4760891;29;20047;-75
2023/12/28 12:49:45;;;;;;;15.32;3.25;;;;;;;10.84;100.00;100729.31;4772993;29;20109;-76
2023/12/28 12:52:10;;;;;;;17.50;4.32;;;;;;;10.82;100.00;100720.50;4761785;30;20424;-76
2023/12/28 12:54:36;;;;;;;17.58;4.47;;;;;;;10.88;100.00;100730.16;4756315;30;20540;-76
2023/12/28 12:57:02;;;;;;;11.25;3.58;;;;;;;10.83;100.00;100716.50;4774393;30;20043;-76
2023/12/28 12:59:28;;;;;;;18.23;3.53;;;;;;;10.85;100.00;100719.72;4775694;29;20023;-76
2023/12/28 13:01:53;;;;;;;15.55;4.15;;;;;;;10.89;100.00;100714.97;4778958;30;20035;-76
2023/12/28 13:04:19;;;;;;;15.95;3.28;;;;;;;10.78;100.00;100721.25;4772851;30;20038;-76
2023/12/28 13:06:45;;;;;;;21.00;4.15;;;;;;;10.72;100.00;100717.19;4759928;30;20027;-76
2023/12/28 13:09:13;;;;;;;23.50;3.45;;;;;;;10.80;100.00;100723.69;4761015;30;20106;-76
2023/12/28 13:11:38;;;;;;;13.38;3.58;;;;;;;10.85;100.00;100717.72;4759124;30;20028;-76
2023/12/28 13:14:04;;;;;;;21.73;4.05;;;;;;;10.85;100.00;100708.53;4761716;30;20042;-76
2023/12/28 13:16:30;;;;;;;20.05;2.75;;;;;;;10.86;100.00;100707.34;4778958;30;20031;-76
2023/12/28 13:18:55;;;;;;;11.90;2.20;;;;;;;10.89;100.00;100712.16;4778050;29;20035;-78
2023/12/28 13:21:21;;;;;;;21.98;3.28;;;;;;;10.91;100.00;100707.78;4775092;30;20568;-75
2023/12/28 13:23:46;;;;;;;12.27;2.33;;;;;;;10.90;100.00;100696.97;4759683;29;20143;-76
2023/12/28 13:26:11;;;;;;;15.45;2.92;;;;;;;10.92;100.00;100711.38;4774088;30;20043;-76
2023/12/28 13:28:37;;;;;;;19.92;3.95;;;;;;;10.85;100.00;100697.31;4760506;30;20044;-76
2023/12/28 13:31:02;;;;;;;13.57;2.60;;;;;;;10.76;100.00;100709.63;4768974;30;20066;-75
2023/12/28 13:33:27;;;;;;;17.13;5.20;;;;;;;10.85;100.00;100697.31;4764976;29;20051;-76
2023/12/28 13:35:53;;;;;;;11.35;3.17;;;;;;;10.83;100.00;100710.91;4766377;30;20098;-75
2023/12/28 13:38:18;;;;;;;11.75;3.58;;;;;;;10.81;100.00;100708.47;4761977;30;20073;-76
2023/12/28 13:40:43;;;;;;;13.25;4.13;;;;;;;10.83;100.00;100714.50;4769758;30;20031;-76
2023/12/28 13:43:09;;;;;;;13.48;2.70;;;;;;;10.82;100.00;100712.91;4773325;30;20031;-75
2023/12/28 13:45:35;;;;;;;15.70;2.70;;;;;;;10.77;100.00;100718.84;4769686;30;20037;-76
2023/12/28 13:48:00;;;;;;;15.52;3.38;;;;;;;10.73;100.00;100718.81;4778675;29;20047;-76
2023/12/28 13:50:25;;;;;;;18.58;2.67;;;;;;;10.73;100.00;100707.63;4766638;30;20548;-77
2023/12/28 13:52:51;;;;;;;11.00;3.45;;;;;;;10.75;100.00;100710.84;4774975;30;20047;-75
2023/12/28 13:55:16;;;;;;;7.05;2.47;;;;;;;10.77;100.00;100711.25;4759525;29;20042;-76
2023/12/28 13:57:42;;;;;;;19.73;3.05;;;;;;;10.82;100.00;100709.31;4763343;29;20032;-75
2023/12/28 14:00:08;;;;;;;9.20;2.95;;;;;;;10.76;100.00;100706.84;4760957;30;20115;-76
2023/12/28 14:02:34;;;;;;;12.45;2.28;;;;;;;10.70;100.00;100708.38;4770332;30;20124;-75
2023/12/28 14:04:59;;;;;;;14.43;2.95;;;;;;;10.76;100.00;100706.03;4769418;30;20101;-76
2023/12/28 14:07:24;;;;;;;9.95;2.42;;;;;;;10.70;100.00;100693.56;4774242;30;20509;-76
2023/12/28 14:09:51;;;;;;;10.85;2.63;;;;;;;10.73;100.00;100701.19;4762575;30;20169;-76
2023/12/28 14:12:17;;;;;;;13.30;3.20;;;;;;;10.81;100.00;100690.88;4775731;29;20384;-76
2023/12/28 14:14:42;;;;;;;9.40;2.42;;;;;;;10.80;100.00;100704.09;4777123;30;20049;-76
2023/12/28 14:17:08;;;;;;;18.38;3.35;;;;;;;10.75;100.00;100713.63;4766670;29;20133;-72
2023/12/28 14:19:33;;;;;;;11.02;3.97;;;;;;;10.75;100.00;100701.63;4764611;29;20027;-72
2023/12/28 14:21:59;;;;;;;15.68;3.60;;;;;;;10.76;100.00;100701.25;4771968;30;20032;-72
2023/12/28 14:24:25;;;;;;;14.70;3.38;;;;;;;10.72;100.00;100699.59;4775041;30;20043;-72
2023/12/28 14:26:53;;;;;;;15.30;2.42;;;;;;;10.75;100.00;100715.59;4770531;30;20027;-73
2023/12/28 14:29:19;;;;;;;15.73;2.92;;;;;;;10.73;100.00;100702.00;4765679;30;20533;-72
2023/12/28 14:31:45;;;;;;;11.68;3.05;;;;;;;10.73;100.00;100702.00;4777041;30;20092;-72
2023/12/28 14:34:11;;;;;;;13.77;3.65;;;;;;;10.77;100.00;100691.66;4770364;30;20089;-72
2023/12/28 14:36:40;;;;;;;12.15;3.38;;;;;;;10.68;100.00;100699.53;4775815;30;20095;-72
2023/12/28 14:39:07;;;;;;;13.00;2.85;;;;;;;10.68;100.00;100696.75;4762875;30;20065;-72
2023/12/28 14:41:37;;;;;;;14.82;2.70;;;;;;;10.69;100.00;100689.97;4766398;29;20047;-74
2023/12/28 14:44:03;;;;;;;13.10;2.38;;;;;;;10.74;100.00;100714.81;4763631;30;20048;-74
2023/12/28 14:46:29;;;;;;;14.52;2.55;;;;;;;10.69;100.00;100720.75;4760108;29;20047;-75
2023/12/28 14:48:55;;;;;;;9.98;2.42;;;;;;;10.66;100.00;100701.13;4758123;30;20048;-72
2023/12/28 14:51:21;;;;;;;10.23;3.10;;;;;;;10.61;100.00;100707.88;4760883;29;20044;-72
2023/12/28 14:53:47;;;;;;;12.93;2.47;;;;;;;10.63;100.00;100718.69;4749036;30;20036;-73
2023/12/28 14:56:13;;;;;;;12.15;2.80;;;;;;;10.58;100.00;100701.06;4764761;30;20581;-75
2023/12/28 14:58:39;;;;;;;9.35;2.67;;;;;;;10.60;100.00;100697.84;4761934;30;20059;-73
2023/12/28 15:01:05;;;;;;;16.55;4.45;;;;;;;10.50;100.00;100707.75;4774172;30;20107;-72
2023/12/28 15:03:30;;;;;;;6.90;2.47;;;;;;;10.45;100.00;100701.69;4760625;30;20110;-72
2023/12/28 15:05:55;;;;;;;15.43;2.53;;;;;;;10.42;100.00;100688.47;4765063;30;20142;-72
2023/12/28 15:08:24;;;;;;;15.60;4.05;;;;;;;10.37;100.00;100698.81;4776857;30;20074;-72
2023/12/28 15:10:50;;;;;;;10.50;2.55;;;;;;;10.36;100.00;100699.97;4759148;30;20036;-72
2023/12/28 15:13:16;;;;;;;7.65;2.42;;;;;;;10.36;100.00;100704.78;4776412;30;20072;-73
2023/12/28 15:15:42;;;;;;;17.60;2.90;;;;;;;10.33;100.00;100699.91;4770362;30;20505;-72
2023/12/28 15:18:08;;;;;;;9.65;2.55;;;;;;;10.34;100.00;100707.94;4770517;29;20038;-73
2023/12/28 15:20:34;;;;;;;7.65;2.47;;;;;;;10.35;100.00;100695.59;4764522;30;20050;-73
2023/12/28 15:23:00;;;;;;;11.55;2.75;;;;;;;10.38;100.00;100703.19;4772876;30;20036;-72
2023/12/28 15:25:25;;;;;;;23.73;3.00;;;;;;;10.37;100.00;100707.19;4771450;30;20034;-72
2023/12/28 15:27:50;;;;;;;13.52;2.85;;;;;;;10.32;100.00;100698.31;4767197;29;20028;-72
2023/12/28 15:30:16;;;;;;;12.00;2.10;;;;;;;10.30;100.00;100712.69;4766341;30;20028;-71
2023/12/28 15:32:42;;;;;;;10.50;2.95;;;;;;;10.32;100.00;100699.13;4755243;29;20043;-72
2023/12/28 15:35:12;;;;;;;9.10;2.67;;;;;;;10.27;100.00;100707.03;4756836;30;20044;-73
2023/12/28 15:37:37;;;;;;;10.93;2.42;;;;;;;10.25;100.00;100701.81;4754275;29;20034;-72
2023/12/28 15:40:04;;;;;;;16.35;3.13;;;;;;;10.23;100.00;100701.38;4763388;30;20036;-72
2023/12/28 15:42:29;;;;;;;10.75;3.00;;;;;;;10.16;100.00;100695.69;4763339;30;20546;-72
2023/12/28 15:44:55;;;;;;;13.80;2.55;;;;;;;10.18;100.00;100687.72;4760590;30;20052;-73
2023/12/28 15:47:20;;;;;;;15.43;4.43;;;;;;;10.13;100.00;100688.06;4753701;30;20052;-73
2023/12/28 15:49:45;;;;;;;9.60;2.83;;;;;;;10.08;100.00;100691.22;4758657;30;20115;-73
2023/12/28 15:52:11;;;;;;;13.88;4.63;;;;;;;10.02;100.00;100673.16;4757247;30;20520;-72
2023/12/28 15:54:36;;;;;;;13.93;2.70;;;;;;;10.01;100.00;100677.13;4756322;30;20031;-72
2023/12/28 15:57:02;;;;;;;19.25;4.10;;;;;;;9.94;100.00;100673.03;4759253;29;20084;-73
2023/12/28 15:59:28;;;;;;;11.65;3.28;;;;;;;9.95;100.00;100671.03;4756302;30;20484;-72
2023/12/28 16:01:53;;;;;;;12.98;3.95;;;;;;;9.92;100.00;100669.81;4764388;30;20096;-73
2023/12/28 16:04:18;;;;;;;12.07;3.17;;;;;;;9.94;100.00;100658.25;4755063;30;20035;-75
2023/12/28 16:06:44;;;;;;;10.68;3.40;;;;;;;9.88;100.00;100641.00;4759124;30;20080;-72
2023/12/28 16:09:10;;;;;;;18.33;3.33;;;;;;;9.92;100.00;100653.03;4764189;30;20550;-72
2023/12/28 16:11:36;;;;;;;19.02;4.97;;;;;;;9.94;100.00;100647.06;4758491;30;20039;-73
2023/12/28 16:14:02;;;;;;;15.13;3.45;;;;;;;9.94;100.00;100652.66;4760345;30;20123;-73
2023/12/28 16:16:27;;;;;;;16.13;3.25;;;;;;;9.98;100.00;100645.94;4755530;29;20818;-72
2023/12/28 16:18:53;;;;;;;14.00;2.97;;;;;;;9.97;100.00;100649.94;4756653;30;20040;-74
2023/12/28 16:21:19;;;;;;;15.68;3.35;;;;;;;9.95;100.00;100657.88;4761476;29;20069;-73
2023/12/28 16:23:45;;;;;;;12.55;4.32;;;;;;;10.00;100.00;100639.97;4763650;29;20036;-72
2023/12/28 16:26:11;;;;;;;21.67;3.78;;;;;;;10.00;100.00;100642.75;4765714;30;20388;-73
2023/12/28 16:28:37;;;;;;;15.95;3.58;;;;;;;10.03;100.00;100635.59;4756964;30;20048;-73
2023/12/28 16:31:03;;;;;;;12.27;3.35;;;;;;;9.97;100.00;100624.75;4756391;29;20054;-72
2023/12/28 16:33:29;;;;;;;17.80;3.42;;;;;;;10.01;100.00;100632.38;4764953;30;20112;-73
2023/12/28 16:35:56;;;;;;;14.95;3.85;;;;;;;10.02;100.00;100629.22;4769047;30;20051;-77
2023/12/28 16:38:22;;;;;;;13.77;3.22;;;;;;;10.08;100.00;100616.50;4761297;30;20452;-76
2023/12/28 16:40:47;;;;;;;15.68;3.38;;;;;;;10.06;100.00;100635.66;4766760;29;20019;-76
2023/12/28 16:43:13;;;;;;;12.57;3.35;;;;;;;10.08;100.00;100626.88;4760809;30;20392;-77
2023/12/28 16:45:39;;;;;;;14.25;2.50;;;;;;;10.10;100.00;100638.50;4758933;30;20036;-76
2023/12/28 16:48:05;;;;;;;12.18;3.95;;;;;;;10.10;100.00;100635.69;4752332;30;20065;-75
2023/12/28 16:50:31;;;;;;;9.63;3.10;;;;;;;10.12;100.00;100625.75;4766258;30;20036;-76
2023/12/28 16:52:56;;;;;;;9.32;3.67;;;;;;;10.20;100.00;100637.78;4772458;29;20062;-76